createdAt,value
2018-03-30T00:02:17.825Z,50.90
2018-03-30T00:04:46.637Z,51.10
2018-03-30T00:07:14.689Z,51.10
2018-03-30T00:09:42.779Z,51.20
2018-03-30T00:12:10.837Z,51.00
2018-03-30T00:14:39.675Z,51.10
2018-03-30T00:17:07.741Z,51.10
2018-03-30T00:19:35.801Z,51.10
2018-03-30T00:22:03.850Z,51.00
2018-03-30T00:24:31.925Z,51.10
2018-03-30T00:26:59.971Z,51.40
2018-03-30T00:29:28.025Z,51.10
2018-03-30T00:31:56.249Z,51.20
2018-03-30T00:34:25.060Z,51.20
2018-03-30T00:36:53.301Z,51.20
2018-03-30T00:39:22.295Z,51.20
2018-03-30T00:41:51.098Z,51.50
2018-03-30T00:44:19.399Z,51.40
2018-03-30T00:46:47.444Z,51.40
2018-03-30T00:49:15.479Z,51.40
2018-03-30T00:51:43.525Z,51.40
2018-03-30T00:54:11.578Z,51.40
2018-03-30T00:56:39.640Z,51.50
2018-03-30T00:59:07.696Z,51.40
2018-03-30T01:01:36.506Z,51.50
2018-03-30T01:04:04.548Z,51.40
2018-03-30T01:06:32.590Z,51.40
2018-03-30T01:09:00.654Z,51.70
2018-03-30T01:11:28.719Z,51.70
2018-03-30T01:13:56.786Z,51.80
2018-03-30T01:16:29.652Z,51.80
2018-03-30T01:18:58.143Z,51.80
2018-03-30T01:21:29.632Z,51.90
2018-03-30T01:24:12.594Z,51.90
2018-03-30T01:26:48.088Z,51.90
2018-03-30T01:29:21.937Z,52.00
2018-03-30T01:31:50.948Z,52.00
2018-03-30T01:34:30.360Z,51.90
2018-03-30T01:37:03.896Z,52.10
2018-03-30T01:39:47.768Z,52.10
2018-03-30T01:42:16.142Z,51.90
2018-03-30T01:44:45.968Z,52.20
2018-03-30T01:47:14.031Z,52.10
2018-03-30T01:49:42.094Z,52.00
2018-03-30T01:52:10.136Z,52.20
2018-03-30T01:54:38.214Z,52.20
2018-03-30T01:57:06.300Z,52.00
2018-03-30T01:59:34.383Z,52.20
2018-03-30T02:02:02.520Z,52.10
2018-03-30T02:04:30.585Z,52.00
2018-03-30T02:06:58.683Z,52.10
2018-03-30T02:09:26.729Z,52.20
2018-03-30T02:11:55.546Z,52.30
2018-03-30T02:14:23.622Z,52.30
2018-03-30T02:16:51.669Z,52.20
2018-03-30T02:19:19.754Z,52.30
2018-03-30T02:21:48.577Z,52.50
2018-03-30T02:24:16.644Z,52.40
2018-03-30T02:26:44.709Z,52.50
2018-03-30T02:29:12.775Z,52.50
2018-03-30T02:31:40.861Z,52.40
2018-03-30T02:34:08.909Z,52.30
2018-03-30T02:36:36.949Z,52.40
2018-03-30T02:39:05.002Z,52.50
2018-03-30T02:41:33.032Z,52.40
2018-03-30T02:44:01.105Z,52.50
2018-03-30T02:46:29.160Z,52.50
2018-03-30T02:48:57.218Z,52.50
2018-03-30T02:51:25.270Z,52.60
2018-03-30T02:53:53.299Z,52.60
2018-03-30T02:56:21.381Z,53.20
2018-03-30T02:58:49.418Z,52.60
2018-03-30T03:01:19.122Z,52.60
2018-03-30T03:03:47.185Z,52.50
2018-03-30T03:06:15.225Z,52.60
2018-03-30T03:08:43.309Z,52.70
2018-03-30T03:11:11.357Z,52.60
2018-03-30T03:13:39.406Z,52.60
2018-03-30T03:16:07.517Z,52.60
2018-03-30T03:18:35.570Z,52.50
2018-03-30T03:21:03.638Z,52.80
2018-03-30T03:23:31.692Z,52.60
2018-03-30T03:25:59.730Z,52.40
2018-03-30T03:28:27.800Z,52.20
2018-03-30T03:30:55.963Z,50.90
2018-03-30T03:33:24.065Z,50.40
2018-03-30T03:35:52.900Z,50.70
2018-03-30T03:38:20.933Z,50.80
2018-03-30T03:40:49.759Z,50.60
2018-03-30T03:43:17.810Z,50.60
2018-03-30T03:45:45.863Z,50.70
2018-03-30T03:48:14.716Z,50.50
2018-03-30T03:50:42.756Z,50.50
2018-03-30T03:53:11.591Z,50.30
2018-03-30T03:55:39.650Z,50.30
2018-03-30T03:58:07.744Z,50.20
2018-03-30T04:00:35.793Z,50.70
2018-03-30T04:03:03.843Z,50.00
2018-03-30T04:05:31.879Z,50.30
2018-03-30T04:08:00.037Z,50.30
2018-03-30T04:10:28.129Z,50.50
2018-03-30T04:12:56.935Z,50.90
2018-03-30T04:15:24.995Z,50.80
2018-03-30T04:17:53.039Z,50.70
2018-03-30T04:20:21.100Z,50.50
2018-03-30T04:22:49.200Z,50.30
2018-03-30T04:25:17.266Z,49.30
2018-03-30T04:27:45.329Z,48.10
2018-03-30T04:30:13.390Z,48.20
2018-03-30T04:32:41.440Z,49.10
2018-03-30T04:35:09.515Z,49.50
2018-03-30T04:37:37.558Z,49.50
2018-03-30T04:40:05.602Z,49.60
2018-03-30T04:42:33.643Z,49.60
2018-03-30T04:45:01.708Z,49.60
2018-03-30T04:47:29.801Z,49.50
2018-03-30T04:49:58.171Z,49.60
2018-03-30T04:52:26.240Z,49.60
2018-03-30T04:54:54.282Z,49.60
2018-03-30T04:57:22.343Z,49.70
2018-03-30T04:59:50.489Z,49.70
2018-03-30T05:02:18.562Z,49.70
2018-03-30T05:04:46.717Z,49.80
2018-03-30T05:07:14.778Z,49.70
2018-03-30T05:09:42.839Z,49.70
2018-03-30T05:12:10.888Z,49.70
2018-03-30T05:14:38.963Z,49.90
2018-03-30T05:17:07.029Z,49.80
2018-03-30T05:19:35.104Z,49.80
2018-03-30T05:22:03.179Z,49.80
2018-03-30T05:24:31.243Z,49.70
2018-03-30T05:26:59.409Z,49.90
2018-03-30T05:29:27.480Z,49.90
2018-03-30T05:31:55.528Z,49.80
2018-03-30T05:34:23.602Z,49.70
2018-03-30T05:36:51.641Z,49.80
2018-03-30T05:39:19.691Z,49.80
2018-03-30T05:41:47.763Z,49.80
2018-03-30T05:44:15.819Z,49.80
2018-03-30T05:46:43.888Z,49.60
2018-03-30T05:49:11.986Z,48.00
2018-03-30T05:51:40.453Z,47.00
2018-03-30T05:54:08.539Z,47.70
2018-03-30T05:56:36.592Z,48.00
2018-03-30T05:59:04.650Z,50.10
2018-03-30T06:01:32.713Z,50.50
2018-03-30T06:04:00.799Z,50.20
2018-03-30T06:06:28.866Z,50.00
2018-03-30T06:08:56.907Z,50.60
2018-03-30T06:11:24.951Z,51.20
2018-03-30T06:13:53.161Z,50.90
2018-03-30T06:16:21.223Z,50.70
2018-03-30T06:18:49.284Z,50.20
2018-03-30T06:21:17.353Z,50.90
2018-03-30T06:23:45.457Z,50.90
2018-03-30T06:26:13.522Z,47.80
2018-03-30T06:28:42.352Z,49.10
2018-03-30T06:31:10.415Z,49.00
2018-03-30T06:33:38.513Z,49.60
2018-03-30T06:36:06.769Z,51.50
2018-03-30T06:38:34.842Z,50.40
2018-03-30T06:41:02.908Z,50.40
2018-03-30T06:43:30.948Z,51.70
2018-03-30T06:45:59.085Z,51.10
2018-03-30T06:48:27.206Z,48.50
2018-03-30T06:50:56.022Z,48.70
2018-03-30T06:53:24.112Z,48.30
2018-03-30T06:55:52.146Z,49.20
2018-03-30T06:58:20.198Z,50.10
2018-03-30T07:00:48.265Z,50.70
2018-03-30T07:03:17.842Z,51.20
2018-03-30T07:05:45.978Z,51.20
2018-03-30T07:08:14.794Z,51.80
2018-03-30T07:10:42.870Z,51.70
2018-03-30T07:13:10.952Z,51.50
2018-03-30T07:15:39.009Z,51.50
2018-03-30T07:18:07.083Z,51.60
2018-03-30T07:20:35.123Z,51.30
2018-03-30T07:23:03.184Z,51.70
2018-03-30T07:25:31.443Z,51.50
2018-03-30T07:27:59.511Z,51.40
2018-03-30T07:30:27.637Z,51.50
2018-03-30T07:32:55.684Z,51.60
2018-03-30T07:35:23.805Z,51.70
2018-03-30T07:37:52.241Z,52.10
2018-03-30T07:40:20.527Z,52.20
2018-03-30T07:42:48.616Z,51.80
2018-03-30T07:45:16.718Z,51.00
2018-03-30T07:47:44.915Z,51.80
2018-03-30T07:53:11.201Z,51.30
2018-03-30T07:55:39.293Z,51.20
2018-03-30T07:58:07.537Z,51.20
2018-03-30T08:00:35.605Z,51.70
2018-03-30T08:03:03.650Z,51.90
2018-03-30T08:05:31.697Z,52.00
2018-03-30T08:07:59.804Z,51.90
2018-03-30T08:10:27.866Z,51.90
2018-03-30T08:12:55.938Z,51.70
2018-03-30T08:15:23.999Z,51.80
2018-03-30T08:17:52.056Z,51.70
2018-03-30T08:20:20.111Z,51.70
2018-03-30T08:22:48.163Z,51.80
2018-03-30T08:25:16.245Z,51.80
2018-03-30T08:27:44.410Z,51.80
2018-03-30T08:30:12.466Z,51.50
2018-03-30T08:32:40.542Z,51.60
2018-03-30T08:35:08.683Z,51.50
2018-03-30T08:37:36.756Z,51.70
2018-03-30T08:40:04.811Z,51.50
2018-03-30T08:42:32.920Z,51.60
2018-03-30T08:45:00.965Z,51.60
2018-03-30T08:47:29.043Z,51.60
2018-03-30T08:49:57.114Z,51.60
2018-03-30T08:52:25.182Z,51.80
2018-03-30T08:54:53.655Z,51.70
2018-03-30T08:57:21.739Z,51.80
2018-03-30T08:59:49.836Z,51.50
2018-03-30T09:02:17.882Z,51.70
2018-03-30T09:04:45.944Z,51.60
2018-03-30T09:07:13.995Z,51.70
2018-03-30T09:09:42.104Z,51.70
2018-03-30T09:12:10.192Z,51.80
2018-03-30T09:14:38.272Z,51.90
2018-03-30T09:17:06.328Z,51.80
2018-03-30T09:19:34.387Z,51.30
2018-03-30T09:22:02.448Z,51.40
2018-03-30T09:24:30.547Z,51.70
2018-03-30T09:26:58.638Z,51.60
2018-03-30T09:29:26.701Z,51.20
2018-03-30T09:31:54.749Z,51.30
2018-03-30T09:34:22.817Z,51.40
2018-03-30T09:36:50.884Z,51.50
2018-03-30T09:39:19.015Z,51.70
2018-03-30T09:41:47.071Z,51.70
2018-03-30T09:44:15.126Z,51.80
2018-03-30T09:46:43.168Z,50.70
2018-03-30T09:49:11.239Z,51.10
2018-03-30T09:51:39.339Z,51.20
2018-03-30T09:54:07.405Z,51.30
2018-03-30T09:56:35.471Z,51.20
2018-03-30T09:59:03.541Z,51.40
2018-03-30T10:01:31.613Z,51.70
2018-03-30T10:03:59.713Z,50.70
2018-03-30T10:06:27.779Z,51.10
2018-03-30T10:08:55.831Z,51.50
2018-03-30T10:11:23.977Z,51.50
2018-03-30T10:13:52.283Z,51.80
2018-03-30T10:16:20.341Z,51.60
2018-03-30T10:18:48.445Z,51.70
2018-03-30T10:21:16.511Z,52.20
2018-03-30T10:23:44.588Z,51.70
2018-03-30T10:26:12.658Z,51.70
2018-03-30T10:28:40.733Z,51.40
2018-03-30T10:31:08.861Z,52.50
2018-03-30T10:33:36.958Z,52.60
2018-03-30T10:36:05.078Z,52.10
2018-03-30T10:38:33.202Z,52.20
2018-03-30T10:41:01.310Z,52.10
2018-03-30T10:43:29.401Z,52.00
2018-03-30T10:45:57.460Z,51.90
2018-03-30T10:48:27.022Z,51.70
2018-03-30T10:50:55.108Z,51.70
2018-03-30T10:53:23.170Z,51.70
2018-03-30T10:55:51.226Z,52.10
2018-03-30T10:58:19.272Z,52.20
2018-03-30T11:00:47.350Z,52.00
2018-03-30T11:03:15.407Z,52.20
2018-03-30T11:05:43.752Z,51.90
2018-03-30T11:08:11.800Z,51.90
2018-03-30T11:10:39.869Z,52.00
2018-03-30T11:13:07.941Z,51.90
2018-03-30T11:15:36.001Z,52.00
2018-03-30T11:18:04.085Z,52.10
2018-03-30T11:20:32.217Z,51.80
2018-03-30T11:23:00.302Z,51.90
2018-03-30T11:25:28.367Z,52.10
2018-03-30T11:27:56.417Z,51.70
2018-03-30T11:30:24.483Z,51.70
2018-03-30T11:32:52.519Z,51.90
2018-03-30T11:35:20.572Z,52.00
2018-03-30T11:37:48.657Z,52.00
2018-03-30T11:40:16.712Z,52.00
2018-03-30T11:42:44.767Z,51.80
2018-03-30T11:45:13.053Z,51.90
2018-03-30T11:47:41.118Z,51.70
2018-03-30T11:50:09.199Z,52.00
2018-03-30T11:52:37.262Z,52.10
2018-03-30T11:55:06.839Z,51.90
2018-03-30T11:57:34.940Z,51.90
2018-03-30T12:00:03.046Z,51.90
2018-03-30T12:02:31.116Z,52.00
2018-03-30T12:04:59.192Z,52.00
2018-03-30T12:07:27.244Z,51.70
2018-03-30T12:09:56.063Z,51.60
2018-03-30T12:12:24.116Z,51.60
2018-03-30T12:14:52.210Z,51.60
2018-03-30T12:17:21.379Z,51.40
2018-03-30T12:19:49.436Z,49.80
2018-03-30T12:22:17.474Z,48.80
2018-03-30T12:24:45.546Z,49.70
2018-03-30T12:27:13.600Z,50.70
2018-03-30T12:29:41.688Z,51.00
2018-03-30T12:32:09.751Z,51.00
2018-03-30T12:34:37.785Z,51.50
2018-03-30T12:37:05.862Z,51.50
2018-03-30T12:39:33.945Z,51.10
2018-03-30T12:42:02.057Z,51.10
2018-03-30T12:44:30.108Z,51.10
2018-03-30T12:46:58.167Z,51.20
2018-03-30T12:49:26.235Z,50.60
2018-03-30T12:51:54.559Z,49.60
2018-03-30T12:54:22.616Z,50.30
2018-03-30T12:56:50.674Z,51.60
2018-03-30T12:59:18.751Z,55.20
2018-03-30T13:01:46.805Z,52.80
2018-03-30T13:04:14.868Z,48.40
2018-03-30T13:06:42.918Z,47.30
2018-03-30T13:09:10.996Z,50.90
2018-03-30T13:11:39.069Z,50.40
2018-03-30T13:14:07.113Z,50.40
2018-03-30T13:16:35.155Z,50.00
2018-03-30T13:19:03.219Z,50.30
2018-03-30T13:21:32.055Z,50.70
2018-03-30T13:24:00.112Z,50.70
2018-03-30T13:26:28.183Z,50.70
2018-03-30T13:28:56.259Z,50.80
2018-03-30T13:31:24.386Z,50.90
2018-03-30T13:33:52.451Z,50.60
2018-03-30T13:36:20.515Z,48.60
2018-03-30T13:38:48.598Z,47.60
2018-03-30T13:41:17.466Z,48.40
2018-03-30T13:43:45.549Z,48.40
2018-03-30T13:46:13.610Z,48.40
2018-03-30T13:48:41.809Z,50.10
2018-03-30T13:51:09.868Z,51.20
2018-03-30T13:53:38.166Z,50.90
2018-03-30T13:56:06.238Z,51.50
2018-03-30T13:58:34.287Z,50.70
2018-03-30T14:01:02.371Z,51.10
2018-03-30T14:03:30.456Z,54.70
2018-03-30T14:05:58.541Z,56.20
2018-03-30T14:08:26.627Z,57.50
2018-03-30T14:10:54.697Z,59.00
2018-03-30T14:13:23.018Z,59.50
2018-03-30T14:15:51.110Z,58.20
2018-03-30T14:18:19.928Z,59.20
2018-03-30T14:20:48.012Z,58.60
2018-03-30T14:23:16.051Z,58.30
2018-03-30T14:25:44.135Z,59.10
2018-03-30T14:28:12.191Z,59.30
2018-03-30T14:30:40.275Z,58.30
2018-03-30T14:33:08.342Z,59.10
2018-03-30T14:35:36.417Z,58.90
2018-03-30T14:38:04.522Z,60.20
2018-03-30T14:40:32.573Z,59.10
2018-03-30T14:43:00.837Z,59.90
2018-03-30T14:45:28.884Z,59.50
2018-03-30T14:47:58.461Z,55.70
2018-03-30T14:50:26.513Z,55.70
2018-03-30T14:52:54.556Z,55.40
2018-03-30T14:55:22.616Z,56.80
2018-03-30T14:57:50.671Z,58.10
2018-03-30T15:00:18.703Z,58.00
2018-03-30T15:02:46.767Z,58.70
2018-03-30T15:05:14.810Z,58.00
2018-03-30T15:07:42.851Z,58.50
2018-03-30T15:10:10.902Z,59.30
2018-03-30T15:12:39.066Z,58.30
2018-03-30T15:15:07.138Z,58.00
2018-03-30T15:17:35.249Z,59.20
2018-03-30T15:20:03.298Z,59.20
2018-03-30T15:22:31.332Z,57.70
2018-03-30T15:25:00.159Z,52.90
2018-03-30T15:27:28.217Z,52.90
2018-03-30T15:29:56.264Z,53.50
2018-03-30T15:32:24.436Z,56.10
2018-03-30T15:34:52.677Z,55.00
2018-03-30T15:37:20.756Z,55.80
2018-03-30T15:39:48.827Z,56.30
2018-03-30T15:42:16.876Z,56.10
2018-03-30T15:44:45.658Z,55.50
2018-03-30T15:47:13.715Z,55.10
2018-03-30T15:49:41.786Z,55.80
2018-03-30T15:52:09.836Z,56.70
2018-03-30T15:54:38.703Z,55.60
2018-03-30T15:57:06.785Z,55.70
2018-03-30T15:59:34.841Z,55.20
2018-03-30T16:02:02.913Z,53.80
2018-03-30T16:04:30.967Z,55.00
2018-03-30T16:06:59.009Z,55.00
2018-03-30T16:09:27.114Z,56.10
2018-03-30T16:11:55.187Z,56.20
2018-03-30T16:14:23.259Z,56.50
2018-03-30T16:16:51.345Z,56.20
2018-03-30T16:19:19.437Z,56.70
2018-03-30T16:21:47.509Z,55.70
2018-03-30T16:24:15.568Z,55.50
2018-03-30T16:26:43.631Z,55.80
2018-03-30T16:29:11.703Z,55.10
2018-03-30T16:31:39.854Z,56.70
2018-03-30T16:34:07.904Z,54.60
2018-03-30T16:36:35.964Z,54.50
2018-03-30T16:39:04.053Z,54.60
2018-03-30T16:41:32.121Z,56.10
2018-03-30T16:44:00.938Z,54.90
2018-03-30T16:46:29.004Z,54.90
2018-03-30T16:48:57.065Z,54.70
2018-03-30T16:51:25.154Z,54.70
2018-03-30T16:53:53.223Z,54.70
2018-03-30T16:56:21.309Z,54.90
2018-03-30T16:58:49.418Z,57.20
2018-03-30T17:01:17.481Z,58.30
2018-03-30T17:03:45.534Z,56.50
2018-03-30T17:06:13.599Z,55.40
2018-03-30T17:08:41.684Z,55.70
2018-03-30T17:11:09.742Z,55.30
2018-03-30T17:13:37.853Z,56.60
2018-03-30T17:16:06.770Z,53.80
2018-03-30T17:18:34.831Z,53.80
2018-03-30T17:21:03.650Z,53.70
2018-03-30T17:23:31.720Z,53.70
2018-03-30T17:25:59.827Z,54.30
2018-03-30T17:28:27.893Z,53.80
2018-03-30T17:30:55.964Z,55.30
2018-03-30T17:33:24.006Z,55.90
2018-03-30T17:35:52.089Z,56.40
2018-03-30T17:38:20.239Z,56.90
2018-03-30T17:40:48.316Z,56.40
2018-03-30T17:43:17.336Z,56.40
2018-03-30T17:45:45.399Z,58.90
2018-03-30T17:48:13.477Z,56.90
2018-03-30T17:50:41.537Z,56.20
2018-03-30T17:53:10.122Z,56.50
2018-03-30T17:55:38.173Z,56.20
2018-03-30T17:58:06.238Z,56.50
2018-03-30T18:00:35.071Z,57.10
2018-03-30T18:03:03.327Z,57.00
2018-03-30T18:05:31.416Z,57.10
2018-03-30T18:07:59.456Z,55.30
2018-03-30T18:10:27.600Z,56.70
2018-03-30T18:12:55.649Z,55.90
2018-03-30T18:15:23.743Z,55.90
2018-03-30T18:17:51.817Z,56.60
2018-03-30T18:20:19.878Z,55.90
2018-03-30T18:22:47.933Z,55.70
2018-03-30T18:25:16.397Z,56.30
2018-03-30T18:27:44.446Z,55.90
2018-03-30T18:30:12.497Z,56.00
2018-03-30T18:32:40.563Z,56.30
2018-03-30T18:35:08.665Z,56.20
2018-03-30T18:37:36.735Z,58.30
2018-03-30T18:40:05.007Z,56.80
2018-03-30T18:42:33.083Z,57.10
2018-03-30T18:45:01.149Z,56.50
2018-03-30T18:47:29.187Z,57.20
2018-03-30T18:49:57.236Z,56.10
2018-03-30T18:52:25.287Z,57.40
2018-03-30T18:54:53.353Z,56.80
2018-03-30T18:57:22.232Z,56.80
2018-03-30T18:59:50.332Z,56.80
2018-03-30T19:02:18.389Z,56.40
2018-03-30T19:04:46.452Z,57.40
2018-03-30T19:07:15.306Z,52.10
2018-03-30T19:09:43.339Z,52.00
2018-03-30T19:12:11.408Z,54.00
2018-03-30T19:14:39.504Z,54.70
2018-03-30T19:17:07.980Z,55.90
2018-03-30T19:19:36.044Z,56.10
2018-03-30T19:22:04.095Z,55.30
2018-03-30T19:24:32.162Z,54.20
2018-03-30T19:27:00.244Z,55.00
2018-03-30T19:29:28.324Z,54.20
2018-03-30T19:31:57.322Z,55.80
2018-03-30T19:34:25.386Z,56.30
2018-03-30T19:36:54.606Z,56.30
2018-03-30T19:39:22.677Z,56.00
2018-03-30T19:41:50.744Z,56.10
2018-03-30T19:44:18.813Z,56.20
2018-03-30T19:46:46.859Z,55.60
2018-03-30T19:49:14.924Z,55.70
2018-03-30T19:51:42.983Z,55.20
2018-03-30T19:54:11.815Z,56.10
2018-03-30T19:56:39.898Z,56.10
2018-03-30T19:59:08.284Z,55.70
2018-03-30T20:01:36.740Z,56.40
2018-03-30T20:04:04.792Z,55.70
2018-03-30T20:06:33.607Z,55.90
2018-03-30T20:09:01.678Z,55.90
2018-03-30T20:11:29.747Z,56.10
2018-03-30T20:13:57.827Z,55.50
2018-03-30T20:16:25.859Z,55.80
2018-03-30T20:18:53.933Z,55.20
2018-03-30T20:21:21.994Z,54.30
2018-03-30T20:23:50.070Z,54.70
2018-03-30T20:26:18.150Z,53.60
2018-03-30T20:28:46.219Z,51.90
2018-03-30T20:31:14.280Z,53.10
2018-03-30T20:33:42.371Z,54.30
2018-03-30T20:36:10.431Z,53.40
2018-03-30T20:38:38.491Z,54.30
2018-03-30T20:41:06.532Z,54.10
2018-03-30T20:43:34.604Z,55.80
2018-03-30T20:46:02.685Z,54.70
2018-03-30T20:48:30.732Z,54.60
2018-03-30T20:50:58.788Z,55.30
2018-03-30T20:53:26.857Z,55.20
2018-03-30T20:55:54.970Z,55.90
2018-03-30T20:58:23.066Z,55.70
2018-03-30T21:00:51.146Z,55.50
2018-03-30T21:03:19.236Z,55.20
2018-03-30T21:05:47.336Z,55.60
2018-03-30T21:08:15.388Z,55.60
2018-03-30T21:10:44.237Z,55.90
2018-03-30T21:13:12.283Z,55.90
2018-03-30T21:15:40.364Z,55.30
2018-03-30T21:18:08.452Z,55.70
2018-03-30T21:20:36.490Z,55.00
2018-03-30T21:23:04.558Z,54.80
2018-03-30T21:25:32.622Z,54.90
2018-03-30T21:28:00.708Z,54.90
2018-03-30T21:30:28.769Z,55.00
2018-03-30T21:32:57.625Z,55.10
2018-03-30T21:35:25.717Z,55.10
2018-03-30T21:37:53.849Z,55.10
2018-03-30T21:40:21.911Z,55.10
2018-03-30T21:42:49.971Z,55.10
2018-03-30T21:45:18.055Z,55.10
2018-03-30T21:47:46.145Z,55.00
2018-03-30T21:50:14.203Z,55.10
2018-03-30T21:52:42.342Z,55.10
2018-03-30T21:55:10.408Z,55.10
2018-03-30T21:57:38.462Z,55.00
2018-03-30T22:00:06.511Z,54.90
2018-03-30T22:02:34.629Z,54.80
2018-03-30T22:05:03.442Z,54.80
2018-03-30T22:07:31.506Z,54.70
2018-03-30T22:09:59.574Z,54.60
2018-03-30T22:12:27.637Z,54.60
2018-03-30T22:14:55.701Z,54.60
2018-03-30T22:17:23.769Z,54.60
2018-03-30T22:19:51.813Z,54.50
2018-03-30T22:22:19.882Z,54.40
2018-03-30T22:24:47.901Z,54.40
2018-03-30T22:27:15.957Z,54.30
2018-03-30T22:29:43.992Z,54.20
2018-03-30T22:32:12.448Z,54.80
2018-03-30T22:34:40.488Z,54.20
2018-03-30T22:37:08.489Z,54.10
2018-03-30T22:39:37.281Z,54.20
2018-03-30T22:42:05.330Z,54.10
2018-03-30T22:44:33.332Z,54.30
2018-03-30T22:47:02.137Z,54.20
2018-03-30T22:49:30.161Z,54.20
2018-03-30T22:51:58.211Z,54.30
2018-03-30T22:54:26.240Z,54.40
2018-03-30T22:56:54.424Z,54.30
2018-03-30T22:59:22.456Z,54.30
2018-03-30T23:01:50.525Z,54.20
2018-03-30T23:04:18.558Z,54.20
2018-03-30T23:06:46.588Z,54.40
2018-03-30T23:09:14.602Z,54.20
2018-03-30T23:11:42.650Z,54.40
2018-03-30T23:14:10.702Z,54.50
2018-03-30T23:16:38.734Z,54.60
2018-03-30T23:19:06.770Z,54.60
2018-03-30T23:21:34.803Z,54.50
2018-03-30T23:24:02.812Z,54.60
2018-03-30T23:26:30.862Z,54.60
2018-03-30T23:28:58.888Z,54.50
2018-03-30T23:31:26.958Z,54.50
2018-03-30T23:33:54.965Z,54.50
2018-03-30T23:36:23.004Z,54.30
2018-03-30T23:38:51.041Z,54.50
2018-03-30T23:41:19.093Z,54.60
2018-03-30T23:43:47.130Z,54.70
2018-03-30T23:46:15.154Z,54.70
2018-03-30T23:48:43.197Z,54.90
2018-03-30T23:51:11.216Z,54.70
2018-03-30T23:53:39.303Z,54.90
2018-03-30T23:56:07.288Z,55.00
2018-03-30T23:58:35.313Z,54.70
